sensor_id;sensor_type;location;lat;lon;timestamp;temperature;humidity
13665;DHT22;6905;50.770;6.730;2022-12-18T02:22:15;-7.10;99.90
13665;DHT22;6905;50.770;6.730;2022-12-18T02:24:50;-7.10;99.90
13665;DHT22;6905;50.770;6.730;2022-12-18T02:27:20;-7.20;99.90
13665;DHT22;6905;50.770;6.730;2022-12-18T02:29:48;-7.20;99.90
13665;DHT22;6905;50.770;6.730;2022-12-18T02:32:25;-7.20;99.90
13665;DHT22;6905;50.770;6.730;2022-12-18T02:48:19;-7.10;99.90
13665;DHT22;6905;50.770;6.730;2022-12-18T02:50:50;-7.10;99.90
13665;DHT22;6905;50.770;6.730;2022-12-18T02:53:22;-7.10;99.90
13665;DHT22;6905;50.770;6.730;2022-12-18T02:55:53;-7.10;99.90
13665;DHT22;6905;50.770;6.730;2022-12-18T02:58:25;-7.10;99.90
13665;DHT22;6905;50.770;6.730;2022-12-18T03:00:53;-7.00;99.90
13665;DHT22;6905;50.770;6.730;2022-12-18T03:03:26;-7.10;99.90
13665;DHT22;6905;50.770;6.730;2022-12-18T03:05:56;-7.10;99.90
13665;DHT22;6905;50.770;6.730;2022-12-18T03:08:25;-7.00;99.90
13665;DHT22;6905;50.770;6.730;2022-12-18T03:10:55;-7.00;99.90
13665;DHT22;6905;50.770;6.730;2022-12-18T03:13:26;-7.00;99.90
13665;DHT22;6905;50.770;6.730;2022-12-18T03:15:55;-7.00;99.90
13665;DHT22;6905;50.770;6.730;2022-12-18T03:18:23;-7.10;99.90
13665;DHT22;6905;50.770;6.730;2022-12-18T03:20:53;-7.00;99.90
13665;DHT22;6905;50.770;6.730;2022-12-18T03:23:21;-7.00;99.90
13665;DHT22;6905;50.770;6.730;2022-12-18T03:25:49;-7.00;99.90
13665;DHT22;6905;50.770;6.730;2022-12-18T03:28:19;-7.00;99.90
13665;DHT22;6905;50.770;6.730;2022-12-18T03:30:46;-7.00;99.90
13665;DHT22;6905;50.770;6.730;2022-12-18T03:33:16;-7.00;99.90
13665;DHT22;6905;50.770;6.730;2022-12-18T03:35:47;-6.90;99.90
13665;DHT22;6905;50.770;6.730;2022-12-18T03:38:16;-6.90;99.90
13665;DHT22;6905;50.770;6.730;2022-12-18T03:40:47;-6.90;99.90
13665;DHT22;6905;50.770;6.730;2022-12-18T03:43:18;-6.90;99.90
13665;DHT22;6905;50.770;6.730;2022-12-18T03:45:48;-6.90;99.90
13665;DHT22;6905;50.770;6.730;2022-12-18T03:48:19;-6.90;99.90
13665;DHT22;6905;50.770;6.730;2022-12-18T03:50:49;-6.90;99.90
13665;DHT22;6905;50.770;6.730;2022-12-18T03:53:22;-6.90;99.90
13665;DHT22;6905;50.770;6.730;2022-12-18T03:55:50;-6.90;99.90
13665;DHT22;6905;50.770;6.730;2022-12-18T03:58:19;-6.90;99.90
13665;DHT22;6905;50.770;6.730;2022-12-18T04:00:47;-6.90;99.90
13665;DHT22;6905;50.770;6.730;2022-12-18T04:03:14;-6.90;99.90
13665;DHT22;6905;50.770;6.730;2022-12-18T06:33:22;-7.20;99.90
13665;DHT22;6905;50.770;6.730;2022-12-18T06:35:52;-7.20;99.90
13665;DHT22;6905;50.770;6.730;2022-12-18T06:38:18;-7.20;99.90
13665;DHT22;6905;50.770;6.730;2022-12-18T06:40:45;-7.20;99.90
13665;DHT22;6905;50.770;6.730;2022-12-18T06:43:12;-7.20;99.90
13665;DHT22;6905;50.770;6.730;2022-12-18T06:45:39;-7.20;99.90
13665;DHT22;6905;50.770;6.730;2022-12-18T06:48:05;-7.20;99.90
13665;DHT22;6905;50.770;6.730;2022-12-18T06:50:33;-7.20;99.90
13665;DHT22;6905;50.770;6.730;2022-12-18T06:53:00;-7.10;99.90
13665;DHT22;6905;50.770;6.730;2022-12-18T06:55:27;-7.10;99.90
13665;DHT22;6905;50.770;6.730;2022-12-18T06:57:53;-7.00;99.90
13665;DHT22;6905;50.770;6.730;2022-12-18T07:00:20;-7.00;99.90
13665;DHT22;6905;50.770;6.730;2022-12-18T07:02:47;-7.00;99.90
13665;DHT22;6905;50.770;6.730;2022-12-18T07:05:13;-7.00;99.90
13665;DHT22;6905;50.770;6.730;2022-12-18T07:07:41;-7.00;99.90
13665;DHT22;6905;50.770;6.730;2022-12-18T07:10:08;-7.00;99.90
13665;DHT22;6905;50.770;6.730;2022-12-18T07:12:35;-7.00;99.90
13665;DHT22;6905;50.770;6.730;2022-12-18T07:15:02;-7.00;99.90
13665;DHT22;6905;50.770;6.730;2022-12-18T07:17:28;-7.00;99.90
13665;DHT22;6905;50.770;6.730;2022-12-18T07:19:55;-7.00;99.90
13665;DHT22;6905;50.770;6.730;2022-12-18T07:22:22;-7.00;99.90
13665;DHT22;6905;50.770;6.730;2022-12-18T07:24:50;-7.00;99.90
13665;DHT22;6905;50.770;6.730;2022-12-18T07:27:16;-7.00;99.90
13665;DHT22;6905;50.770;6.730;2022-12-18T07:29:43;-7.00;99.90
13665;DHT22;6905;50.770;6.730;2022-12-18T07:32:09;-7.10;99.90
13665;DHT22;6905;50.770;6.730;2022-12-18T07:34:36;-7.10;99.90
13665;DHT22;6905;50.770;6.730;2022-12-18T07:37:03;-7.10;99.90
13665;DHT22;6905;50.770;6.730;2022-12-18T07:39:29;-7.10;99.90
13665;DHT22;6905;50.770;6.730;2022-12-18T07:41:57;-7.10;99.90
13665;DHT22;6905;50.770;6.730;2022-12-18T07:44:38;-7.00;99.90
13665;DHT22;6905;50.770;6.730;2022-12-18T07:47:05;-6.90;99.90
13665;DHT22;6905;50.770;6.730;2022-12-18T07:49:31;-6.90;99.90
13665;DHT22;6905;50.770;6.730;2022-12-18T07:51:58;-6.90;99.90
13665;DHT22;6905;50.770;6.730;2022-12-18T07:54:25;-6.90;99.90
13665;DHT22;6905;50.770;6.730;2022-12-18T07:56:51;-6.80;99.90
13665;DHT22;6905;50.770;6.730;2022-12-18T07:59:19;-6.80;99.90
13665;DHT22;6905;50.770;6.730;2022-12-18T08:01:46;-6.70;99.90
13665;DHT22;6905;50.770;6.730;2022-12-18T08:04:12;-6.70;99.90
13665;DHT22;6905;50.770;6.730;2022-12-18T08:06:39;-6.70;99.90
13665;DHT22;6905;50.770;6.730;2022-12-18T08:09:06;-6.70;99.90
13665;DHT22;6905;50.770;6.730;2022-12-18T08:11:34;-6.60;99.90
13665;DHT22;6905;50.770;6.730;2022-12-18T08:14:00;-6.60;99.90
13665;DHT22;6905;50.770;6.730;2022-12-18T08:16:28;-6.60;99.90
13665;DHT22;6905;50.770;6.730;2022-12-18T08:18:55;-6.50;99.90
13665;DHT22;6905;50.770;6.730;2022-12-18T08:21:22;-6.50;99.90
13665;DHT22;6905;50.770;6.730;2022-12-18T08:23:50;-6.40;99.90
13665;DHT22;6905;50.770;6.730;2022-12-18T08:26:17;-6.40;99.90
13665;DHT22;6905;50.770;6.730;2022-12-18T08:28:43;-6.30;99.90
13665;DHT22;6905;50.770;6.730;2022-12-18T08:31:10;-6.20;99.90
13665;DHT22;6905;50.770;6.730;2022-12-18T08:33:40;-6.10;99.90
13665;DHT22;6905;50.770;6.730;2022-12-18T08:36:08;-6.00;99.90
13665;DHT22;6905;50.770;6.730;2022-12-18T08:38:35;-6.00;99.90
13665;DHT22;6905;50.770;6.730;2022-12-18T08:41:04;-5.90;99.90
13665;DHT22;6905;50.770;6.730;2022-12-18T08:43:30;-5.80;99.90
13665;DHT22;6905;50.770;6.730;2022-12-18T08:46:15;-5.80;99.90
13665;DHT22;6905;50.770;6.730;2022-12-18T08:48:43;-5.60;99.90
13665;DHT22;6905;50.770;6.730;2022-12-18T08:51:10;-5.50;99.90
13665;DHT22;6905;50.770;6.730;2022-12-18T08:53:37;-5.40;99.90
13665;DHT22;6905;50.770;6.730;2022-12-18T08:56:04;-5.30;99.90
13665;DHT22;6905;50.770;6.730;2022-12-18T08:58:31;-5.10;99.90
13665;DHT22;6905;50.770;6.730;2022-12-18T09:00:59;-5.00;99.90
13665;DHT22;6905;50.770;6.730;2022-12-18T09:03:26;-4.80;99.90
13665;DHT22;6905;50.770;6.730;2022-12-18T09:05:56;-4.60;99.90
13665;DHT22;6905;50.770;6.730;2022-12-18T09:08:23;-4.50;99.90
13665;DHT22;6905;50.770;6.730;2022-12-18T09:10:50;-4.40;99.90
13665;DHT22;6905;50.770;6.730;2022-12-18T09:13:23;-4.30;99.90
13665;DHT22;6905;50.770;6.730;2022-12-18T09:15:50;-4.20;99.90
13665;DHT22;6905;50.770;6.730;2022-12-18T09:18:18;-4.10;99.90
13665;DHT22;6905;50.770;6.730;2022-12-18T09:20:46;-3.90;99.90
13665;DHT22;6905;50.770;6.730;2022-12-18T09:23:15;-3.80;99.90
13665;DHT22;6905;50.770;6.730;2022-12-18T09:25:41;-3.60;99.90
13665;DHT22;6905;50.770;6.730;2022-12-18T09:28:09;-3.40;99.90
13665;DHT22;6905;50.770;6.730;2022-12-18T09:30:36;-3.20;99.90
13665;DHT22;6905;50.770;6.730;2022-12-18T09:33:03;-3.00;99.90
13665;DHT22;6905;50.770;6.730;2022-12-18T09:35:31;-2.90;99.90
13665;DHT22;6905;50.770;6.730;2022-12-18T09:37:57;-2.80;99.90
13665;DHT22;6905;50.770;6.730;2022-12-18T09:40:35;-2.80;99.90
13665;DHT22;6905;50.770;6.730;2022-12-18T09:43:06;-2.70;99.90
13665;DHT22;6905;50.770;6.730;2022-12-18T09:45:35;-2.60;99.90
13665;DHT22;6905;50.770;6.730;2022-12-18T09:48:05;-2.60;99.90
13665;DHT22;6905;50.770;6.730;2022-12-18T09:50:34;-2.50;99.90
13665;DHT22;6905;50.770;6.730;2022-12-18T09:53:02;-2.50;99.90
13665;DHT22;6905;50.770;6.730;2022-12-18T09:55:33;-2.40;99.90
13665;DHT22;6905;50.770;6.730;2022-12-18T09:58:02;-2.40;99.90
13665;DHT22;6905;50.770;6.730;2022-12-18T10:00:31;-2.30;99.90
13665;DHT22;6905;50.770;6.730;2022-12-18T10:02:58;-2.30;99.90
13665;DHT22;6905;50.770;6.730;2022-12-18T10:05:28;-2.30;99.90
13665;DHT22;6905;50.770;6.730;2022-12-18T10:07:59;-2.20;99.90
13665;DHT22;6905;50.770;6.730;2022-12-18T10:10:32;-2.10;99.90
13665;DHT22;6905;50.770;6.730;2022-12-18T10:13:05;-2.00;99.90
13665;DHT22;6905;50.770;6.730;2022-12-18T10:15:34;-1.90;99.90
13665;DHT22;6905;50.770;6.730;2022-12-18T10:18:05;-1.70;99.90
13665;DHT22;6905;50.770;6.730;2022-12-18T10:20:38;-1.60;99.90
13665;DHT22;6905;50.770;6.730;2022-12-18T10:23:09;-1.40;99.90
13665;DHT22;6905;50.770;6.730;2022-12-18T10:25:41;-1.30;99.90
13665;DHT22;6905;50.770;6.730;2022-12-18T10:28:12;-1.20;99.90
13665;DHT22;6905;50.770;6.730;2022-12-18T10:30:39;-1.10;99.90
13665;DHT22;6905;50.770;6.730;2022-12-18T10:33:08;-1.00;99.90
13665;DHT22;6905;50.770;6.730;2022-12-18T10:35:37;-1.00;99.90
13665;DHT22;6905;50.770;6.730;2022-12-18T10:38:19;-0.90;99.90
13665;DHT22;6905;50.770;6.730;2022-12-18T10:40:50;-0.90;99.90
13665;DHT22;6905;50.770;6.730;2022-12-18T10:43:21;-0.90;99.90
13665;DHT22;6905;50.770;6.730;2022-12-18T10:45:59;-0.80;99.90
13665;DHT22;6905;50.770;6.730;2022-12-18T10:48:26;-0.80;99.90
13665;DHT22;6905;50.770;6.730;2022-12-18T10:50:53;-0.80;99.90
13665;DHT22;6905;50.770;6.730;2022-12-18T10:53:21;-0.90;99.90
13665;DHT22;6905;50.770;6.730;2022-12-18T10:55:49;-0.90;99.90
13665;DHT22;6905;50.770;6.730;2022-12-18T10:58:19;-0.80;99.90
13665;DHT22;6905;50.770;6.730;2022-12-18T11:01:01;-0.80;99.90
13665;DHT22;6905;50.770;6.730;2022-12-18T11:03:29;-0.80;99.90
13665;DHT22;6905;50.770;6.730;2022-12-18T11:06:03;-0.80;99.90
13665;DHT22;6905;50.770;6.730;2022-12-18T11:08:30;-0.70;99.90
13665;DHT22;6905;50.770;6.730;2022-12-18T11:10:57;-0.70;99.90
13665;DHT22;6905;50.770;6.730;2022-12-18T11:13:24;-0.80;99.90
13665;DHT22;6905;50.770;6.730;2022-12-18T11:15:53;-0.80;99.90
13665;DHT22;6905;50.770;6.730;2022-12-18T11:18:22;-0.80;99.90
13665;DHT22;6905;50.770;6.730;2022-12-18T11:20:52;-0.80;99.90
13665;DHT22;6905;50.770;6.730;2022-12-18T11:23:19;-0.80;99.90
13665;DHT22;6905;50.770;6.730;2022-12-18T11:25:52;-0.80;99.90
13665;DHT22;6905;50.770;6.730;2022-12-18T11:28:34;-0.80;99.90
13665;DHT22;6905;50.770;6.730;2022-12-18T11:33:45;-0.80;99.90
13665;DHT22;6905;50.770;6.730;2022-12-18T11:36:13;-0.80;99.90
13665;DHT22;6905;50.770;6.730;2022-12-18T11:38:40;-0.80;99.90
13665;DHT22;6905;50.770;6.730;2022-12-18T11:41:13;-0.80;99.90
13665;DHT22;6905;50.770;6.730;2022-12-18T11:43:42;-0.80;99.90
13665;DHT22;6905;50.770;6.730;2022-12-18T11:46:12;-0.80;99.90
13665;DHT22;6905;50.770;6.730;2022-12-18T11:48:41;-0.80;99.90
13665;DHT22;6905;50.770;6.730;2022-12-18T11:51:11;-0.80;99.90
13665;DHT22;6905;50.770;6.730;2022-12-18T11:53:38;-0.80;99.90
13665;DHT22;6905;50.770;6.730;2022-12-18T11:56:11;-0.80;99.90
13665;DHT22;6905;50.770;6.730;2022-12-18T11:58:43;-0.90;99.90
13665;DHT22;6905;50.770;6.730;2022-12-18T12:01:13;-0.80;99.90
13665;DHT22;6905;50.770;6.730;2022-12-18T12:03:55;-0.90;99.90
13665;DHT22;6905;50.770;6.730;2022-12-18T12:06:29;-0.90;99.90
13665;DHT22;6905;50.770;6.730;2022-12-18T12:09:04;-0.90;99.90
13665;DHT22;6905;50.770;6.730;2022-12-18T12:11:36;-0.90;99.90
13665;DHT22;6905;50.770;6.730;2022-12-18T12:14:07;-0.90;99.90
13665;DHT22;6905;50.770;6.730;2022-12-18T12:16:37;-0.90;99.90
13665;DHT22;6905;50.770;6.730;2022-12-18T12:19:10;-1.00;99.90
13665;DHT22;6905;50.770;6.730;2022-12-18T12:21:42;-1.00;99.90
13665;DHT22;6905;50.770;6.730;2022-12-18T12:24:15;-1.00;99.90
13665;DHT22;6905;50.770;6.730;2022-12-18T12:26:49;-1.00;99.90
13665;DHT22;6905;50.770;6.730;2022-12-18T12:29:23;-1.00;99.90
13665;DHT22;6905;50.770;6.730;2022-12-18T12:31:58;-1.00;99.90
13665;DHT22;6905;50.770;6.730;2022-12-18T12:34:30;-1.00;99.90
13665;DHT22;6905;50.770;6.730;2022-12-18T12:37:03;-1.00;99.90
13665;DHT22;6905;50.770;6.730;2022-12-18T12:39:35;-1.10;99.90
13665;DHT22;6905;50.770;6.730;2022-12-18T12:42:03;-1.10;99.90
13665;DHT22;6905;50.770;6.730;2022-12-18T12:44:48;-1.00;99.90
13665;DHT22;6905;50.770;6.730;2022-12-18T12:47:18;-1.00;99.90
13665;DHT22;6905;50.770;6.730;2022-12-18T12:49:46;-1.00;99.90
13665;DHT22;6905;50.770;6.730;2022-12-18T12:52:16;-1.00;99.90
13665;DHT22;6905;50.770;6.730;2022-12-18T12:54:44;-1.00;99.90
13665;DHT22;6905;50.770;6.730;2022-12-18T12:57:11;-1.00;99.90
13665;DHT22;6905;50.770;6.730;2022-12-18T12:59:42;-0.90;99.90
13665;DHT22;6905;50.770;6.730;2022-12-18T13:02:14;-0.90;99.90
13665;DHT22;6905;50.770;6.730;2022-12-18T13:04:45;-0.90;99.90
13665;DHT22;6905;50.770;6.730;2022-12-18T13:07:17;-0.90;99.90
13665;DHT22;6905;50.770;6.730;2022-12-18T13:12:32;-0.90;99.90
13665;DHT22;6905;50.770;6.730;2022-12-18T13:15:32;-0.90;99.90
13665;DHT22;6905;50.770;6.730;2022-12-18T13:18:03;-0.90;99.90
13665;DHT22;6905;50.770;6.730;2022-12-18T13:20:32;-1.00;99.90
13665;DHT22;6905;50.770;6.730;2022-12-18T13:23:01;-1.00;99.90
13665;DHT22;6905;50.770;6.730;2022-12-18T13:25:45;-1.00;99.90
13665;DHT22;6905;50.770;6.730;2022-12-18T13:28:12;-1.10;99.90
13665;DHT22;6905;50.770;6.730;2022-12-18T13:36:16;-1.10;99.90
13665;DHT22;6905;50.770;6.730;2022-12-18T13:41:32;-1.10;99.90
13665;DHT22;6905;50.770;6.730;2022-12-18T13:44:10;-1.10;99.90
13665;DHT22;6905;50.770;6.730;2022-12-18T13:46:42;-1.10;99.90
13665;DHT22;6905;50.770;6.730;2022-12-18T13:49:16;-1.20;99.90
13665;DHT22;6905;50.770;6.730;2022-12-18T13:51:46;-1.20;99.90
13665;DHT22;6905;50.770;6.730;2022-12-18T13:57:29;-1.30;99.90
13665;DHT22;6905;50.770;6.730;2022-12-18T13:59:56;-1.30;99.90
13665;DHT22;6905;50.770;6.730;2022-12-18T14:02:23;-1.30;99.90
13665;DHT22;6905;50.770;6.730;2022-12-18T14:05:05;-1.30;99.90
13665;DHT22;6905;50.770;6.730;2022-12-18T14:07:32;-1.40;99.90
13665;DHT22;6905;50.770;6.730;2022-12-18T14:39:18;-1.70;99.90
13665;DHT22;6905;50.770;6.730;2022-12-18T14:41:45;-1.70;99.90
13665;DHT22;6905;50.770;6.730;2022-12-18T14:44:14;-1.80;99.90
13665;DHT22;6905;50.770;6.730;2022-12-18T14:46:46;-1.80;99.90
13665;DHT22;6905;50.770;6.730;2022-12-18T14:49:18;-1.80;99.90
13665;DHT22;6905;50.770;6.730;2022-12-18T14:51:56;-1.90;99.90
13665;DHT22;6905;50.770;6.730;2022-12-18T14:57:20;-1.90;99.90
13665;DHT22;6905;50.770;6.730;2022-12-18T14:59:47;-2.00;99.90
13665;DHT22;6905;50.770;6.730;2022-12-18T15:02:16;-2.00;99.90
13665;DHT22;6905;50.770;6.730;2022-12-18T15:04:45;-2.00;99.90
13665;DHT22;6905;50.770;6.730;2022-12-18T15:07:13;-2.10;99.90
13665;DHT22;6905;50.770;6.730;2022-12-18T15:10:00;-2.20;99.90
13665;DHT22;6905;50.770;6.730;2022-12-18T15:12:33;-2.20;99.90
13665;DHT22;6905;50.770;6.730;2022-12-18T15:15:01;-2.20;99.90
13665;DHT22;6905;50.770;6.730;2022-12-18T15:17:30;-2.20;99.90
13665;DHT22;6905;50.770;6.730;2022-12-18T15:20:00;-2.30;99.90
13665;DHT22;6905;50.770;6.730;2022-12-18T15:22:33;-2.30;99.90
13665;DHT22;6905;50.770;6.730;2022-12-18T15:25:01;-2.40;99.90
13665;DHT22;6905;50.770;6.730;2022-12-18T15:27:31;-2.40;99.90
13665;DHT22;6905;50.770;6.730;2022-12-18T15:30:01;-2.40;99.90
13665;DHT22;6905;50.770;6.730;2022-12-18T16:01:16;-2.60;99.90
13665;DHT22;6905;50.770;6.730;2022-12-18T16:03:45;-2.60;99.90
13665;DHT22;6905;50.770;6.730;2022-12-18T16:06:33;-2.60;99.90
13665;DHT22;6905;50.770;6.730;2022-12-18T16:09:01;-2.60;99.90
13665;DHT22;6905;50.770;6.730;2022-12-18T16:11:29;-2.60;99.90
13665;DHT22;6905;50.770;6.730;2022-12-18T16:14:12;-2.60;99.90
13665;DHT22;6905;50.770;6.730;2022-12-18T16:16:48;-2.60;99.90
13665;DHT22;6905;50.770;6.730;2022-12-18T16:19:15;-2.60;99.90
13665;DHT22;6905;50.770;6.730;2022-12-18T16:21:42;-2.60;99.90
13665;DHT22;6905;50.770;6.730;2022-12-18T16:24:13;-2.60;99.90
13665;DHT22;6905;50.770;6.730;2022-12-18T16:26:43;-2.60;99.90
13665;DHT22;6905;50.770;6.730;2022-12-18T16:29:10;-2.60;99.90
13665;DHT22;6905;50.770;6.730;2022-12-18T16:31:49;-2.50;99.90
13665;DHT22;6905;50.770;6.730;2022-12-18T16:34:34;-2.50;99.90
13665;DHT22;6905;50.770;6.730;2022-12-18T16:37:11;-2.60;99.90
13665;DHT22;6905;50.770;6.730;2022-12-18T16:39:44;-2.50;99.90
13665;DHT22;6905;50.770;6.730;2022-12-18T16:42:12;-2.50;99.90
13665;DHT22;6905;50.770;6.730;2022-12-18T16:44:42;-2.50;99.90
13665;DHT22;6905;50.770;6.730;2022-12-18T16:47:23;-2.50;99.90
13665;DHT22;6905;50.770;6.730;2022-12-18T16:50:18;-2.50;99.90
13665;DHT22;6905;50.770;6.730;2022-12-18T16:58:10;-2.40;99.90
13665;DHT22;6905;50.770;6.730;2022-12-18T17:00:38;-2.40;99.90
13665;DHT22;6905;50.770;6.730;2022-12-18T17:03:08;-2.40;99.90
13665;DHT22;6905;50.770;6.730;2022-12-18T17:05:36;-2.40;99.90
13665;DHT22;6905;50.770;6.730;2022-12-18T17:08:03;-2.40;99.90
13665;DHT22;6905;50.770;6.730;2022-12-18T17:10:30;-2.40;99.90
13665;DHT22;6905;50.770;6.730;2022-12-18T17:12:59;-2.40;99.90
13665;DHT22;6905;50.770;6.730;2022-12-18T17:15:27;-2.40;99.90
13665;DHT22;6905;50.770;6.730;2022-12-18T17:18:12;-2.40;99.90
13665;DHT22;6905;50.770;6.730;2022-12-18T17:20:43;-2.40;99.90
13665;DHT22;6905;50.770;6.730;2022-12-18T17:23:24;-2.40;99.90
13665;DHT22;6905;50.770;6.730;2022-12-18T17:25:59;-2.40;99.90
13665;DHT22;6905;50.770;6.730;2022-12-18T17:28:40;-2.40;99.90
13665;DHT22;6905;50.770;6.730;2022-12-18T17:31:17;-2.40;99.90
13665;DHT22;6905;50.770;6.730;2022-12-18T17:45:10;-2.30;99.90
13665;DHT22;6905;50.770;6.730;2022-12-18T17:47:42;-2.30;99.90
13665;DHT22;6905;50.770;6.730;2022-12-18T17:50:24;-2.30;99.90
13665;DHT22;6905;50.770;6.730;2022-12-18T17:53:07;-2.30;99.90
13665;DHT22;6905;50.770;6.730;2022-12-18T17:56:00;-2.30;99.90
13665;DHT22;6905;50.770;6.730;2022-12-18T17:58:30;-2.30;99.90
13665;DHT22;6905;50.770;6.730;2022-12-18T18:01:10;-2.30;99.90
13665;DHT22;6905;50.770;6.730;2022-12-18T18:03:38;-2.30;99.90
13665;DHT22;6905;50.770;6.730;2022-12-18T18:06:06;-2.30;99.90
13665;DHT22;6905;50.770;6.730;2022-12-18T18:08:55;-2.20;99.90
13665;DHT22;6905;50.770;6.730;2022-12-18T18:11:23;-2.20;99.90
13665;DHT22;6905;50.770;6.730;2022-12-18T18:14:11;-2.20;99.90
13665;DHT22;6905;50.770;6.730;2022-12-18T18:16:57;-2.20;99.90
13665;DHT22;6905;50.770;6.730;2022-12-18T18:19:39;-2.20;99.90
13665;DHT22;6905;50.770;6.730;2022-12-18T18:22:27;-2.20;99.90
13665;DHT22;6905;50.770;6.730;2022-12-18T18:25:10;-2.20;99.90
13665;DHT22;6905;50.770;6.730;2022-12-18T18:27:39;-2.20;99.90
13665;DHT22;6905;50.770;6.730;2022-12-18T18:36:24;-2.20;99.90
13665;DHT22;6905;50.770;6.730;2022-12-18T18:38:51;-2.20;99.90
13665;DHT22;6905;50.770;6.730;2022-12-18T18:41:20;-2.20;99.90
13665;DHT22;6905;50.770;6.730;2022-12-18T18:43:51;-2.10;99.90
13665;DHT22;6905;50.770;6.730;2022-12-18T18:46:22;-2.10;99.90
13665;DHT22;6905;50.770;6.730;2022-12-18T18:48:52;-2.10;99.90
13665;DHT22;6905;50.770;6.730;2022-12-18T18:54:08;-2.10;99.90
13665;DHT22;6905;50.770;6.730;2022-12-18T18:59:17;-2.10;99.90
13665;DHT22;6905;50.770;6.730;2022-12-18T19:01:50;-2.10;99.90
13665;DHT22;6905;50.770;6.730;2022-12-18T19:04:24;-2.10;99.90
13665;DHT22;6905;50.770;6.730;2022-12-18T19:06:51;-2.00;99.90
13665;DHT22;6905;50.770;6.730;2022-12-18T19:09:24;-2.00;99.90
13665;DHT22;6905;50.770;6.730;2022-12-18T19:11:55;-2.00;99.90
13665;DHT22;6905;50.770;6.730;2022-12-18T19:14:49;-2.00;99.90
13665;DHT22;6905;50.770;6.730;2022-12-18T19:17:44;-2.00;99.90
13665;DHT22;6905;50.770;6.730;2022-12-18T19:23:39;-2.00;99.90
13665;DHT22;6905;50.770;6.730;2022-12-18T19:32:29;-1.90;99.90
13665;DHT22;6905;50.770;6.730;2022-12-18T19:34:59;-1.90;99.90
13665;DHT22;6905;50.770;6.730;2022-12-18T19:37:27;-1.80;99.90
13665;DHT22;6905;50.770;6.730;2022-12-18T19:39:55;-1.80;99.90
13665;DHT22;6905;50.770;6.730;2022-12-18T19:42:22;-1.80;99.90
13665;DHT22;6905;50.770;6.730;2022-12-18T19:44:51;-1.80;99.90
13665;DHT22;6905;50.770;6.730;2022-12-18T19:47:18;-1.80;99.90
13665;DHT22;6905;50.770;6.730;2022-12-18T19:49:47;-1.70;99.90
13665;DHT22;6905;50.770;6.730;2022-12-18T19:52:14;-1.70;99.90
13665;DHT22;6905;50.770;6.730;2022-12-18T19:54:40;-1.70;99.90
13665;DHT22;6905;50.770;6.730;2022-12-18T19:57:07;-1.70;99.90
13665;DHT22;6905;50.770;6.730;2022-12-18T19:59:37;-1.70;99.90
13665;DHT22;6905;50.770;6.730;2022-12-18T20:02:05;-1.70;99.90
13665;DHT22;6905;50.770;6.730;2022-12-18T20:04:31;-1.70;99.90
13665;DHT22;6905;50.770;6.730;2022-12-18T20:07:00;-1.70;99.90
13665;DHT22;6905;50.770;6.730;2022-12-18T20:09:29;-1.60;99.90
13665;DHT22;6905;50.770;6.730;2022-12-18T20:11:55;-1.60;99.90
13665;DHT22;6905;50.770;6.730;2022-12-18T20:14:23;-1.60;99.90
13665;DHT22;6905;50.770;6.730;2022-12-18T20:16:57;-1.60;99.90
13665;DHT22;6905;50.770;6.730;2022-12-18T20:19:25;-1.50;99.90
13665;DHT22;6905;50.770;6.730;2022-12-18T20:21:53;-1.50;99.90
13665;DHT22;6905;50.770;6.730;2022-12-18T20:24:23;-1.50;99.90
13665;DHT22;6905;50.770;6.730;2022-12-18T20:26:54;-1.50;99.90
13665;DHT22;6905;50.770;6.730;2022-12-18T20:29:23;-1.40;99.90
13665;DHT22;6905;50.770;6.730;2022-12-18T21:32:22;-0.90;99.90
13665;DHT22;6905;50.770;6.730;2022-12-18T21:35:01;-0.90;99.90
13665;DHT22;6905;50.770;6.730;2022-12-18T21:37:43;-0.80;99.90
13665;DHT22;6905;50.770;6.730;2022-12-18T21:40:26;-0.80;99.90
13665;DHT22;6905;50.770;6.730;2022-12-18T21:43:25;-0.80;99.90
13665;DHT22;6905;50.770;6.730;2022-12-18T21:46:10;-0.70;99.90
13665;DHT22;6905;50.770;6.730;2022-12-18T21:48:56;-0.70;99.90
13665;DHT22;6905;50.770;6.730;2022-12-18T21:51:39;-0.70;99.90
13665;DHT22;6905;50.770;6.730;2022-12-18T21:54:21;-0.70;99.90
13665;DHT22;6905;50.770;6.730;2022-12-18T21:57:04;-0.70;99.90
13665;DHT22;6905;50.770;6.730;2022-12-18T21:59:33;-0.60;99.90
13665;DHT22;6905;50.770;6.730;2022-12-18T22:02:02;-0.60;99.90
13665;DHT22;6905;50.770;6.730;2022-12-18T22:04:32;-0.60;99.90
13665;DHT22;6905;50.770;6.730;2022-12-18T22:07:03;-0.60;99.90
13665;DHT22;6905;50.770;6.730;2022-12-18T22:09:33;-0.60;99.90
13665;DHT22;6905;50.770;6.730;2022-12-18T22:12:04;-0.60;99.90
13665;DHT22;6905;50.770;6.730;2022-12-18T22:14:33;-0.60;99.90
13665;DHT22;6905;50.770;6.730;2022-12-18T22:17:00;-0.60;99.90
13665;DHT22;6905;50.770;6.730;2022-12-18T22:19:27;-0.60;99.90
13665;DHT22;6905;50.770;6.730;2022-12-18T22:21:55;-0.50;99.90
13665;DHT22;6905;50.770;6.730;2022-12-18T22:24:22;-0.50;99.90
13665;DHT22;6905;50.770;6.730;2022-12-18T22:26:50;-0.50;99.90
13665;DHT22;6905;50.770;6.730;2022-12-18T22:29:19;-0.50;99.90
13665;DHT22;6905;50.770;6.730;2022-12-18T22:32:04;-0.50;99.90
13665;DHT22;6905;50.770;6.730;2022-12-18T22:34:32;-0.40;99.90
13665;DHT22;6905;50.770;6.730;2022-12-18T22:37:04;-0.50;99.90
13665;DHT22;6905;50.770;6.730;2022-12-18T22:39:34;-0.40;99.90
13665;DHT22;6905;50.770;6.730;2022-12-18T22:42:01;-0.40;99.90
13665;DHT22;6905;50.770;6.730;2022-12-18T22:44:29;-0.40;99.90
13665;DHT22;6905;50.770;6.730;2022-12-18T22:46:58;-0.40;99.90
13665;DHT22;6905;50.770;6.730;2022-12-18T22:49:29;-0.40;99.90
13665;DHT22;6905;50.770;6.730;2022-12-18T22:51:58;-0.40;99.90
13665;DHT22;6905;50.770;6.730;2022-12-18T22:54:43;-0.40;99.90
13665;DHT22;6905;50.770;6.730;2022-12-18T22:57:24;-0.40;99.90
13665;DHT22;6905;50.770;6.730;2022-12-18T22:59:51;-0.30;99.90
13665;DHT22;6905;50.770;6.730;2022-12-18T23:02:23;-0.30;99.90
